sensor_id;sensor_type;location;lat;lon;timestamp;pressure;altitude;pressure_sealevel;temperature;humidity
48926;BME280;39838;59.938;30.642;2023-04-06T00:01:07;102047.00;;;3.64;77.94
48926;BME280;39838;59.938;30.642;2023-04-06T00:03:35;102057.66;;;3.71;77.67
48926;BME280;39838;59.938;30.642;2023-04-06T00:06:02;102052.53;;;3.71;77.71
48926;BME280;39838;59.938;30.642;2023-04-06T00:08:30;102053.50;;;3.73;77.67
48926;BME280;39838;59.938;30.642;2023-04-06T00:10:57;102055.28;;;3.74;78.14
48926;BME280;39838;59.938;30.642;2023-04-06T00:13:25;102059.53;;;3.74;77.56
48926;BME280;39838;59.938;30.642;2023-04-06T00:15:52;102063.00;;;3.74;77.50
48926;BME280;39838;59.938;30.642;2023-04-06T00:18:19;102055.09;;;3.71;78.02
48926;BME280;39838;59.938;30.642;2023-04-06T00:20:46;102054.16;;;3.69;77.94
48926;BME280;39838;59.938;30.642;2023-04-06T00:23:13;102061.84;;;3.69;77.70
48926;BME280;39838;59.938;30.642;2023-04-06T00:25:42;102058.22;;;3.66;77.69
48926;BME280;39838;59.938;30.642;2023-04-06T00:28:09;102068.44;;;3.64;78.36
48926;BME280;39838;59.938;30.642;2023-04-06T00:30:37;102063.16;;;3.61;78.05
48926;BME280;39838;59.938;30.642;2023-04-06T00:33:04;102055.34;;;3.60;78.25
48926;BME280;39838;59.938;30.642;2023-04-06T00:35:31;102049.16;;;3.56;77.83
48926;BME280;39838;59.938;30.642;2023-04-06T00:37:58;102053.41;;;3.55;78.30
48926;BME280;39838;59.938;30.642;2023-04-06T00:40:25;102054.31;;;3.56;77.95
48926;BME280;39838;59.938;30.642;2023-04-06T00:42:55;102057.50;;;3.52;78.10
48926;BME280;39838;59.938;30.642;2023-04-06T00:45:22;102048.91;;;3.51;78.10
48926;BME280;39838;59.938;30.642;2023-04-06T00:47:49;102055.66;;;3.49;78.00
48926;BME280;39838;59.938;30.642;2023-04-06T00:50:17;102050.59;;;3.51;78.10
48926;BME280;39838;59.938;30.642;2023-04-06T00:52:44;102054.84;;;3.50;77.89
48926;BME280;39838;59.938;30.642;2023-04-06T00:55:11;102053.28;;;3.52;77.65
48926;BME280;39838;59.938;30.642;2023-04-06T00:57:38;102047.41;;;3.55;78.38
48926;BME280;39838;59.938;30.642;2023-04-06T01:00:08;102056.06;;;3.57;77.66
48926;BME280;39838;59.938;30.642;2023-04-06T01:02:35;102053.50;;;3.57;77.55
48926;BME280;39838;59.938;30.642;2023-04-06T01:05:03;102058.47;;;3.54;78.16
48926;BME280;39838;59.938;30.642;2023-04-06T01:07:30;102057.75;;;3.56;77.91
48926;BME280;39838;59.938;30.642;2023-04-06T01:09:58;102055.34;;;3.60;77.84
48926;BME280;39838;59.938;30.642;2023-04-06T01:12:25;102064.66;;;3.58;77.80
48926;BME280;39838;59.938;30.642;2023-04-06T01:14:52;102052.69;;;3.58;77.96
48926;BME280;39838;59.938;30.642;2023-04-06T01:17:20;102050.13;;;3.58;78.02
48926;BME280;39838;59.938;30.642;2023-04-06T01:19:48;102054.31;;;3.56;77.86
48926;BME280;39838;59.938;30.642;2023-04-06T01:22:18;102050.44;;;3.48;77.32
48926;BME280;39838;59.938;30.642;2023-04-06T01:24:45;102060.97;;;3.52;78.11
48926;BME280;39838;59.938;30.642;2023-04-06T01:27:13;102060.41;;;3.58;78.06
48926;BME280;39838;59.938;30.642;2023-04-06T01:29:41;102064.66;;;3.58;77.71
48926;BME280;39838;59.938;30.642;2023-04-06T01:32:08;102064.84;;;3.61;77.90
48926;BME280;39838;59.938;30.642;2023-04-06T01:34:35;102065.72;;;3.61;77.58
48926;BME280;39838;59.938;30.642;2023-04-06T01:37:02;102067.47;;;3.62;77.76
48926;BME280;39838;59.938;30.642;2023-04-06T01:39:31;102071.25;;;3.52;77.89
48926;BME280;39838;59.938;30.642;2023-04-06T01:41:58;102073.03;;;3.53;78.22
48926;BME280;39838;59.938;30.642;2023-04-06T01:44:25;102072.47;;;3.59;78.26
48926;BME280;39838;59.938;30.642;2023-04-06T01:46:53;102065.72;;;3.61;78.17
48926;BME280;39838;59.938;30.642;2023-04-06T01:49:20;102059.28;;;3.53;77.76
48926;BME280;39838;59.938;30.642;2023-04-06T01:51:47;102082.28;;;3.66;78.13
48926;BME280;39838;59.938;30.642;2023-04-06T01:54:14;102072.75;;;3.65;77.69
48926;BME280;39838;59.938;30.642;2023-04-06T01:56:42;102076.94;;;3.63;78.12
48926;BME280;39838;59.938;30.642;2023-04-06T01:59:10;102083.84;;;3.64;77.70
48926;BME280;39838;59.938;30.642;2023-04-06T02:01:37;102081.13;;;3.61;78.01
48926;BME280;39838;59.938;30.642;2023-04-06T02:04:04;102076.69;;;3.59;78.35
48926;BME280;39838;59.938;30.642;2023-04-06T02:06:31;102077.59;;;3.59;78.15
48926;BME280;39838;59.938;30.642;2023-04-06T02:08:58;102075.81;;;3.58;77.92
48926;BME280;39838;59.938;30.642;2023-04-06T02:11:25;102078.06;;;3.52;77.89
48926;BME280;39838;59.938;30.642;2023-04-06T02:13:54;102080.31;;;3.46;78.59
48926;BME280;39838;59.938;30.642;2023-04-06T02:16:42;102077.56;;;3.43;78.38
48926;BME280;39838;59.938;30.642;2023-04-06T02:19:09;102083.50;;;3.42;78.59
48926;BME280;39838;59.938;30.642;2023-04-06T02:21:36;102079.81;;;3.37;78.21
48926;BME280;39838;59.938;30.642;2023-04-06T02:24:03;102092.31;;;3.31;78.90
48926;BME280;39838;59.938;30.642;2023-04-06T02:26:31;102096.34;;;3.25;78.83
48926;BME280;39838;59.938;30.642;2023-04-06T02:28:59;102090.47;;;3.28;79.07
48926;BME280;39838;59.938;30.642;2023-04-06T02:31:27;102098.72;;;3.22;79.39
48926;BME280;39838;59.938;30.642;2023-04-06T02:33:55;102096.09;;;3.21;78.97
48926;BME280;39838;59.938;30.642;2023-04-06T02:36:22;102099.44;;;3.20;79.04
48926;BME280;39838;59.938;30.642;2023-04-06T02:38:49;102089.88;;;3.17;79.00
48926;BME280;39838;59.938;30.642;2023-04-06T02:41:17;102094.22;;;3.18;79.25
48926;BME280;39838;59.938;30.642;2023-04-06T02:43:44;102096.88;;;3.20;79.01
48926;BME280;39838;59.938;30.642;2023-04-06T02:46:13;102102.09;;;3.21;78.93
48926;BME280;39838;59.938;30.642;2023-04-06T02:48:40;102107.16;;;3.20;79.10
48926;BME280;39838;59.938;30.642;2023-04-06T02:51:07;102109.47;;;3.15;79.38
48926;BME280;39838;59.938;30.642;2023-04-06T02:53:34;102103.44;;;3.15;79.17
48926;BME280;39838;59.938;30.642;2023-04-06T02:56:01;102102.47;;;3.13;79.05
48926;BME280;39838;59.938;30.642;2023-04-06T02:58:28;102106.63;;;3.11;79.19
48926;BME280;39838;59.938;30.642;2023-04-06T03:00:55;102102.22;;;3.08;79.30
48926;BME280;39838;59.938;30.642;2023-04-06T03:03:24;102103.72;;;3.05;79.37
48926;BME280;39838;59.938;30.642;2023-04-06T03:05:51;102097.63;;;3.03;79.40
48926;BME280;39838;59.938;30.642;2023-04-06T03:08:20;102107.09;;;3.04;79.40
48926;BME280;39838;59.938;30.642;2023-04-06T03:10:47;102109.50;;;3.00;79.78
48926;BME280;39838;59.938;30.642;2023-04-06T03:13:14;102117.00;;;2.97;79.85
48926;BME280;39838;59.938;30.642;2023-04-06T03:15:41;102113.22;;;2.91;79.68
48926;BME280;39838;59.938;30.642;2023-04-06T03:18:08;102113.22;;;2.91;79.96
48926;BME280;39838;59.938;30.642;2023-04-06T03:20:37;102112.16;;;2.87;79.95
48926;BME280;39838;59.938;30.642;2023-04-06T03:23:04;102106.69;;;2.81;80.32
48926;BME280;39838;59.938;30.642;2023-04-06T03:25:31;102111.66;;;2.78;80.14
48926;BME280;39838;59.938;30.642;2023-04-06T03:27:59;102112.19;;;2.72;80.34
48926;BME280;39838;59.938;30.642;2023-04-06T03:30:26;102113.16;;;2.74;80.27
48926;BME280;39838;59.938;30.642;2023-04-06T03:32:53;102115.81;;;2.76;80.55
48926;BME280;39838;59.938;30.642;2023-04-06T03:35:20;102121.22;;;2.81;80.65
48926;BME280;39838;59.938;30.642;2023-04-06T03:37:49;102121.47;;;2.85;80.41
48926;BME280;39838;59.938;30.642;2023-04-06T03:40:16;102120.47;;;2.83;80.47
48926;BME280;39838;59.938;30.642;2023-04-06T03:42:43;102125.38;;;2.79;80.51
48926;BME280;39838;59.938;30.642;2023-04-06T03:45:10;102127.66;;;2.74;80.22
48926;BME280;39838;59.938;30.642;2023-04-06T03:47:39;102128.47;;;2.73;80.45
48926;BME280;39838;59.938;30.642;2023-04-06T03:50:07;102128.56;;;2.74;80.46
48926;BME280;39838;59.938;30.642;2023-04-06T03:52:34;102128.63;;;2.76;80.49
48926;BME280;39838;59.938;30.642;2023-04-06T03:55:04;102132.19;;;2.78;80.52
48926;BME280;39838;59.938;30.642;2023-04-06T03:57:31;102136.59;;;2.81;80.47
48926;BME280;39838;59.938;30.642;2023-04-06T03:59:58;102132.63;;;2.86;80.29
48926;BME280;39838;59.938;30.642;2023-04-06T04:02:25;102137.94;;;2.89;80.32
48926;BME280;39838;59.938;30.642;2023-04-06T04:04:53;102139.06;;;2.94;80.26
48926;BME280;39838;59.938;30.642;2023-04-06T04:07:20;102133.50;;;3.01;80.06
48926;BME280;39838;59.938;30.642;2023-04-06T04:09:47;102135.56;;;2.92;80.42
48926;BME280;39838;59.938;30.642;2023-04-06T04:12:15;102137.84;;;2.87;80.31
48926;BME280;39838;59.938;30.642;2023-04-06T04:14:43;102139.53;;;2.87;80.57
48926;BME280;39838;59.938;30.642;2023-04-06T04:17:10;102139.19;;;2.81;80.35
48926;BME280;39838;59.938;30.642;2023-04-06T04:19:37;102132.81;;;2.74;80.49
48926;BME280;39838;59.938;30.642;2023-04-06T04:22:05;102141.56;;;2.78;80.73
48926;BME280;39838;59.938;30.642;2023-04-06T04:24:32;102134.19;;;2.84;80.44
48926;BME280;39838;59.938;30.642;2023-04-06T04:27:00;102147.22;;;2.87;80.50
48926;BME280;39838;59.938;30.642;2023-04-06T04:29:29;102144.94;;;2.91;80.31
48926;BME280;39838;59.938;30.642;2023-04-06T04:31:56;102152.34;;;3.01;80.62
48926;BME280;39838;59.938;30.642;2023-04-06T04:34:23;102149.31;;;3.09;80.38
48926;BME280;39838;59.938;30.642;2023-04-06T04:36:51;102149.59;;;3.13;79.75
48926;BME280;39838;59.938;30.642;2023-04-06T04:39:18;102150.47;;;3.14;79.59
48926;BME280;39838;59.938;30.642;2023-04-06T04:41:45;102136.22;;;3.04;79.59
48926;BME280;39838;59.938;30.642;2023-04-06T04:44:12;102159.56;;;3.23;79.63
48926;BME280;39838;59.938;30.642;2023-04-06T04:46:41;102155.59;;;3.28;79.26
48926;BME280;39838;59.938;30.642;2023-04-06T04:49:09;102158.16;;;3.28;79.06
48926;BME280;39838;59.938;30.642;2023-04-06T04:51:36;102159.03;;;3.29;78.98
48926;BME280;39838;59.938;30.642;2023-04-06T04:54:03;102160.66;;;3.27;79.21
48926;BME280;39838;59.938;30.642;2023-04-06T04:56:30;102155.31;;;3.24;79.35
48926;BME280;39838;59.938;30.642;2023-04-06T04:58:57;102163.28;;;3.28;79.37
48926;BME280;39838;59.938;30.642;2023-04-06T05:01:24;102160.72;;;3.28;79.15
48926;BME280;39838;59.938;30.642;2023-04-06T05:03:54;102172.94;;;3.33;79.46
48926;BME280;39838;59.938;30.642;2023-04-06T05:06:21;102167.16;;;3.37;78.90
48926;BME280;39838;59.938;30.642;2023-04-06T05:08:48;102162.56;;;3.31;78.98
48926;BME280;39838;59.938;30.642;2023-04-06T05:11:15;102170.03;;;3.26;79.12
48926;BME280;39838;59.938;30.642;2023-04-06T05:13:42;102165.44;;;3.21;78.97
48926;BME280;39838;59.938;30.642;2023-04-06T05:16:10;102169.69;;;3.20;79.34
48926;BME280;39838;59.938;30.642;2023-04-06T05:18:37;102166.47;;;3.24;79.16
48926;BME280;39838;59.938;30.642;2023-04-06T05:21:06;102164.25;;;3.31;79.10
48926;BME280;39838;59.938;30.642;2023-04-06T05:23:33;102171.34;;;3.35;79.17
48926;BME280;39838;59.938;30.642;2023-04-06T05:26:00;102168.03;;;3.37;78.98
48926;BME280;39838;59.938;30.642;2023-04-06T05:28:27;102162.44;;;3.44;78.71
48926;BME280;39838;59.938;30.642;2023-04-06T05:30:55;102166.50;;;3.55;78.51
48926;BME280;39838;59.938;30.642;2023-04-06T05:33:22;102175.44;;;3.62;78.60
48926;BME280;39838;59.938;30.642;2023-04-06T05:35:49;102178.97;;;3.64;78.27
48926;BME280;39838;59.938;30.642;2023-04-06T05:38:18;102175.78;;;3.68;78.27
48926;BME280;39838;59.938;30.642;2023-04-06T05:40:45;102173.59;;;3.76;78.23
48926;BME280;39838;59.938;30.642;2023-04-06T05:43:12;102174.81;;;3.82;78.01
48926;BME280;39838;59.938;30.642;2023-04-06T05:45:40;102171.19;;;3.79;77.40
48926;BME280;39838;59.938;30.642;2023-04-06T05:48:07;102174.34;;;3.73;77.77
48926;BME280;39838;59.938;30.642;2023-04-06T05:50:34;102168.38;;;3.74;77.44
48926;BME280;39838;59.938;30.642;2023-04-06T05:53:01;102176.19;;;3.76;77.45
48926;BME280;39838;59.938;30.642;2023-04-06T05:55:29;102179.63;;;3.76;77.81
48926;BME280;39838;59.938;30.642;2023-04-06T05:57:57;102171.28;;;3.80;77.65
48926;BME280;39838;59.938;30.642;2023-04-06T06:00:24;102174.81;;;3.82;77.76
48926;BME280;39838;59.938;30.642;2023-04-06T06:02:51;102178.44;;;3.86;77.28
48926;BME280;39838;59.938;30.642;2023-04-06T06:05:19;102177.81;;;3.90;77.97
48926;BME280;39838;59.938;30.642;2023-04-06T06:07:46;102175.81;;;4.01;77.84
48926;BME280;39838;59.938;30.642;2023-04-06T06:10:13;102182.50;;;4.14;76.82
48926;BME280;39838;59.938;30.642;2023-04-06T06:12:42;102177.66;;;4.20;76.89
48926;BME280;39838;59.938;30.642;2023-04-06T06:15:09;102179.19;;;4.16;76.29
48926;BME280;39838;59.938;30.642;2023-04-06T06:17:37;102183.94;;;4.08;75.86
48926;BME280;39838;59.938;30.642;2023-04-06T06:20:05;102187.22;;;4.06;76.65
48926;BME280;39838;59.938;30.642;2023-04-06T06:22:33;102169.94;;;3.87;76.36
48926;BME280;39838;59.938;30.642;2023-04-06T06:25:00;102197.09;;;3.98;76.45
48926;BME280;39838;59.938;30.642;2023-04-06T06:27:29;102193.09;;;4.03;76.20
48926;BME280;39838;59.938;30.642;2023-04-06T06:29:57;102185.69;;;4.09;76.23
48926;BME280;39838;59.938;30.642;2023-04-06T06:32:24;102183.53;;;4.17;76.55
48926;BME280;39838;59.938;30.642;2023-04-06T06:34:52;102190.19;;;4.30;75.93
48926;BME280;39838;59.938;30.642;2023-04-06T06:37:19;102191.09;;;4.30;76.03
48926;BME280;39838;59.938;30.642;2023-04-06T06:39:46;102187.13;;;4.37;75.53
48926;BME280;39838;59.938;30.642;2023-04-06T06:42:13;102190.09;;;4.45;75.18
48926;BME280;39838;59.938;30.642;2023-04-06T06:44:40;102192.03;;;4.49;74.95
48926;BME280;39838;59.938;30.642;2023-04-06T06:47:09;102192.69;;;4.45;74.49
48926;BME280;39838;59.938;30.642;2023-04-06T06:49:36;102190.09;;;4.45;75.61
48926;BME280;39838;59.938;30.642;2023-04-06T06:52:05;102187.78;;;4.49;75.13
48926;BME280;39838;59.938;30.642;2023-04-06T06:54:33;102186.06;;;4.66;74.95
48926;BME280;39838;59.938;30.642;2023-04-06T06:57:00;102193.75;;;4.82;74.38
48926;BME280;39838;59.938;30.642;2023-04-06T06:59:27;102192.69;;;4.95;73.89
48926;BME280;39838;59.938;30.642;2023-04-06T07:01:54;102193.19;;;5.06;74.11
48926;BME280;39838;59.938;30.642;2023-04-06T07:04:23;102194.13;;;5.08;73.67
48926;BME280;39838;59.938;30.642;2023-04-06T07:06:50;102198.13;;;5.19;73.30
48926;BME280;39838;59.938;30.642;2023-04-06T07:09:18;102197.84;;;5.31;73.15
48926;BME280;39838;59.938;30.642;2023-04-06T07:11:45;102194.53;;;5.33;72.50
48926;BME280;39838;59.938;30.642;2023-04-06T07:14:12;102192.25;;;5.39;72.58
48926;BME280;39838;59.938;30.642;2023-04-06T07:16:39;102195.94;;;5.44;72.20
48926;BME280;39838;59.938;30.642;2023-04-06T07:19:07;102198.06;;;5.53;71.85
48926;BME280;39838;59.938;30.642;2023-04-06T07:21:36;102190.38;;;5.55;71.74
48926;BME280;39838;59.938;30.642;2023-04-06T07:24:03;102199.47;;;5.64;71.20
48926;BME280;39838;59.938;30.642;2023-04-06T07:26:31;102182.53;;;5.52;71.15
48926;BME280;39838;59.938;30.642;2023-04-06T07:28:58;102201.97;;;5.63;71.96
48926;BME280;39838;59.938;30.642;2023-04-06T07:31:25;102196.41;;;5.73;71.70
48926;BME280;39838;59.938;30.642;2023-04-06T07:33:52;102197.00;;;5.85;70.78
48926;BME280;39838;59.938;30.642;2023-04-06T07:36:20;102205.84;;;5.90;70.67
48926;BME280;39838;59.938;30.642;2023-04-06T07:38:48;102199.94;;;5.93;69.95
48926;BME280;39838;59.938;30.642;2023-04-06T07:41:16;102206.81;;;5.92;69.83
48926;BME280;39838;59.938;30.642;2023-04-06T07:43:43;102202.75;;;5.97;70.04
48926;BME280;39838;59.938;30.642;2023-04-06T07:46:10;102210.09;;;6.08;70.17
48926;BME280;39838;59.938;30.642;2023-04-06T07:48:37;102201.81;;;6.15;69.91
48926;BME280;39838;59.938;30.642;2023-04-06T07:51:05;102202.97;;;6.21;69.10
48926;BME280;39838;59.938;30.642;2023-04-06T07:53:32;102203.50;;;6.34;69.01
48926;BME280;39838;59.938;30.642;2023-04-06T07:56:00;102211.25;;;6.53;68.69
48926;BME280;39838;59.938;30.642;2023-04-06T07:58:28;102211.91;;;6.68;68.03
48926;BME280;39838;59.938;30.642;2023-04-06T08:00:55;102215.03;;;6.80;67.98
48926;BME280;39838;59.938;30.642;2023-04-06T08:03:23;102205.78;;;6.86;67.21
48926;BME280;39838;59.938;30.642;2023-04-06T08:05:51;102217.81;;;6.85;67.29
48926;BME280;39838;59.938;30.642;2023-04-06T08:08:19;102209.09;;;6.83;66.95
48926;BME280;39838;59.938;30.642;2023-04-06T08:10:47;102199.03;;;6.70;67.05
48926;BME280;39838;59.938;30.642;2023-04-06T08:13:16;102209.22;;;6.65;66.94
48926;BME280;39838;59.938;30.642;2023-04-06T08:15:43;102213.63;;;6.48;67.24
48926;BME280;39838;59.938;30.642;2023-04-06T08:18:11;102214.31;;;6.44;67.68
48926;BME280;39838;59.938;30.642;2023-04-06T08:20:38;102222.78;;;6.42;67.24
48926;BME280;39838;59.938;30.642;2023-04-06T08:23:06;102218.25;;;6.36;67.61
48926;BME280;39838;59.938;30.642;2023-04-06T08:25:35;102230.59;;;6.43;67.35
48926;BME280;39838;59.938;30.642;2023-04-06T08:28:02;102221.25;;;6.45;67.57
48926;BME280;39838;59.938;30.642;2023-04-06T08:30:31;102228.28;;;6.49;66.87
48926;BME280;39838;59.938;30.642;2023-04-06T08:32:58;102229.13;;;6.48;67.07
48926;BME280;39838;59.938;30.642;2023-04-06T08:35:26;102231.56;;;6.45;66.30
48926;BME280;39838;59.938;30.642;2023-04-06T08:37:53;102240.19;;;6.46;66.57
48926;BME280;39838;59.938;30.642;2023-04-06T08:40:20;102233.63;;;6.52;66.52
48926;BME280;39838;59.938;30.642;2023-04-06T08:42:50;102206.69;;;6.47;66.39
48926;BME280;39838;59.938;30.642;2023-04-06T08:45:19;102233.03;;;6.79;66.29
48926;BME280;39838;59.938;30.642;2023-04-06T08:47:49;102222.09;;;6.84;65.64
48926;BME280;39838;59.938;30.642;2023-04-06T08:50:18;102232.75;;;6.92;65.19
48926;BME280;39838;59.938;30.642;2023-04-06T08:52:47;102221.84;;;6.99;65.69
48926;BME280;39838;59.938;30.642;2023-04-06T08:55:14;102232.94;;;7.18;65.02
48926;BME280;39838;59.938;30.642;2023-04-06T08:57:42;102237.66;;;7.28;65.21
48926;BME280;39838;59.938;30.642;2023-04-06T09:00:11;102233.94;;;7.42;64.29
48926;BME280;39838;59.938;30.642;2023-04-06T09:02:39;102238.97;;;7.60;64.56
48926;BME280;39838;59.938;30.642;2023-04-06T09:05:08;102241.97;;;7.71;64.09
48926;BME280;39838;59.938;30.642;2023-04-06T09:07:36;102235.91;;;7.70;63.06
48926;BME280;39838;59.938;30.642;2023-04-06T09:10:04;102243.63;;;7.69;63.52
48926;BME280;39838;59.938;30.642;2023-04-06T09:12:32;102246.75;;;7.60;62.84
48926;BME280;39838;59.938;30.642;2023-04-06T09:15:00;102249.38;;;7.61;63.48
48926;BME280;39838;59.938;30.642;2023-04-06T09:17:30;102252.94;;;7.65;63.04
48926;BME280;39838;59.938;30.642;2023-04-06T09:20:00;102245.59;;;7.53;63.07
48926;BME280;39838;59.938;30.642;2023-04-06T09:22:37;102244.44;;;7.45;63.47
48926;BME280;39838;59.938;30.642;2023-04-06T09:25:05;102247.88;;;7.66;63.64
48926;BME280;39838;59.938;30.642;2023-04-06T09:27:34;102248.31;;;7.79;62.98
48926;BME280;39838;59.938;30.642;2023-04-06T09:30:04;102245.34;;;7.90;63.18
48926;BME280;39838;59.938;30.642;2023-04-06T09:32:32;102244.56;;;8.15;62.77
48926;BME280;39838;59.938;30.642;2023-04-06T09:35:06;102247.09;;;8.36;61.71
48926;BME280;39838;59.938;30.642;2023-04-06T09:37:33;102242.97;;;8.41;61.93
48926;BME280;39838;59.938;30.642;2023-04-06T09:40:06;102241.59;;;8.51;61.23
48926;BME280;39838;59.938;30.642;2023-04-06T09:42:34;102238.63;;;8.64;61.21
48926;BME280;39838;59.938;30.642;2023-04-06T09:45:02;102242.56;;;8.79;61.55
48926;BME280;39838;59.938;30.642;2023-04-06T09:47:30;102247.94;;;9.09;60.53
48926;BME280;39838;59.938;30.642;2023-04-06T09:49:59;102234.56;;;9.49;59.50
48926;BME280;39838;59.938;30.642;2023-04-06T09:52:27;102226.88;;;9.52;58.93
48926;BME280;39838;59.938;30.642;2023-04-06T09:54:56;102247.38;;;9.71;58.60
48926;BME280;39838;59.938;30.642;2023-04-06T09:57:31;102238.94;;;9.78;58.47
48926;BME280;39838;59.938;30.642;2023-04-06T10:00:03;102233.50;;;9.99;57.94
48926;BME280;39838;59.938;30.642;2023-04-06T10:02:41;102226.97;;;10.12;56.97
48926;BME280;39838;59.938;30.642;2023-04-06T10:05:15;102233.00;;;10.11;56.87
48926;BME280;39838;59.938;30.642;2023-04-06T10:07:44;102236.38;;;10.08;57.06
48926;BME280;39838;59.938;30.642;2023-04-06T10:10:12;102230.69;;;9.92;56.45
48926;BME280;39838;59.938;30.642;2023-04-06T10:12:43;102225.50;;;9.63;56.81
48926;BME280;39838;59.938;30.642;2023-04-06T10:15:11;102229.69;;;9.33;57.12
48926;BME280;39838;59.938;30.642;2023-04-06T10:17:38;102232.44;;;9.10;57.23
48926;BME280;39838;59.938;30.642;2023-04-06T10:20:10;102230.47;;;8.79;57.69
48926;BME280;39838;59.938;30.642;2023-04-06T10:22:43;102232.75;;;8.70;57.75
48926;BME280;39838;59.938;30.642;2023-04-06T10:25:16;102231.22;;;8.51;57.98
48926;BME280;39838;59.938;30.642;2023-04-06T10:27:45;102233.38;;;8.39;58.76
48926;BME280;39838;59.938;30.642;2023-04-06T10:30:15;102230.47;;;8.31;59.45
48926;BME280;39838;59.938;30.642;2023-04-06T10:32:42;102232.97;;;8.28;59.42
48926;BME280;39838;59.938;30.642;2023-04-06T10:35:11;102229.50;;;8.28;59.58
48926;BME280;39838;59.938;30.642;2023-04-06T10:37:49;102225.41;;;8.34;59.45
48926;BME280;39838;59.938;30.642;2023-04-06T10:40:23;102235.66;;;8.54;59.34
48926;BME280;39838;59.938;30.642;2023-04-06T10:42:54;102221.13;;;8.59;58.97
48926;BME280;39838;59.938;30.642;2023-04-06T10:45:23;102213.97;;;8.52;58.67
48926;BME280;39838;59.938;30.642;2023-04-06T10:47:52;102225.47;;;8.60;59.08
48926;BME280;39838;59.938;30.642;2023-04-06T10:50:20;102229.06;;;8.63;58.81
48926;BME280;39838;59.938;30.642;2023-04-06T10:52:59;102229.06;;;8.63;59.05
48926;BME280;39838;59.938;30.642;2023-04-06T10:55:27;102224.00;;;8.66;58.60
48926;BME280;39838;59.938;30.642;2023-04-06T10:57:56;102221.75;;;8.75;57.92
48926;BME280;39838;59.938;30.642;2023-04-06T11:00:24;102226.19;;;8.80;58.31
48926;BME280;39838;59.938;30.642;2023-04-06T11:02:59;102219.25;;;8.79;58.59
48926;BME280;39838;59.938;30.642;2023-04-06T11:05:26;102223.72;;;8.83;58.19
48926;BME280;39838;59.938;30.642;2023-04-06T11:07:53;102217.75;;;8.85;58.31
48926;BME280;39838;59.938;30.642;2023-04-06T11:10:21;102207.25;;;8.81;58.00
48926;BME280;39838;59.938;30.642;2023-04-06T11:12:53;102205.63;;;8.84;58.12
48926;BME280;39838;59.938;30.642;2023-04-06T11:15:22;102210.34;;;8.96;58.00
48926;BME280;39838;59.938;30.642;2023-04-06T11:17:50;102222.06;;;9.10;57.60
48926;BME280;39838;59.938;30.642;2023-04-06T11:20:17;102217.94;;;9.17;58.03
48926;BME280;39838;59.938;30.642;2023-04-06T11:22:49;102216.19;;;9.16;57.57
48926;BME280;39838;59.938;30.642;2023-04-06T11:25:17;102212.72;;;9.15;57.74
48926;BME280;39838;59.938;30.642;2023-04-06T11:27:45;102210.41;;;9.24;58.34
48926;BME280;39838;59.938;30.642;2023-04-06T11:30:13;102208.94;;;9.33;57.64
48926;BME280;39838;59.938;30.642;2023-04-06T11:32:44;102209.19;;;9.40;57.39
48926;BME280;39838;59.938;30.642;2023-04-06T11:35:19;102220.94;;;9.29;56.72
48926;BME280;39838;59.938;30.642;2023-04-06T11:37:48;102204.72;;;9.09;57.64
48926;BME280;39838;59.938;30.642;2023-04-06T11:40:15;102210.56;;;9.02;56.95
48926;BME280;39838;59.938;30.642;2023-04-06T11:42:52;102206.28;;;8.79;56.92
48926;BME280;39838;59.938;30.642;2023-04-06T11:45:19;102199.44;;;8.55;57.80
48926;BME280;39838;59.938;30.642;2023-04-06T11:47:55;102206.63;;;8.40;57.72
48926;BME280;39838;59.938;30.642;2023-04-06T11:50:22;102212.59;;;8.37;58.71
48926;BME280;39838;59.938;30.642;2023-04-06T11:52:58;102215.25;;;8.39;57.91
48926;BME280;39838;59.938;30.642;2023-04-06T11:55:26;102205.06;;;8.43;57.76
48926;BME280;39838;59.938;30.642;2023-04-06T11:57:53;102205.94;;;8.44;57.95
48926;BME280;39838;59.938;30.642;2023-04-06T12:00:21;102210.41;;;8.48;57.80
48926;BME280;39838;59.938;30.642;2023-04-06T12:02:50;102207.16;;;8.54;57.91
48926;BME280;39838;59.938;30.642;2023-04-06T12:05:17;102203.97;;;8.61;57.27
48926;BME280;39838;59.938;30.642;2023-04-06T12:07:44;102204.94;;;8.64;57.18
48926;BME280;39838;59.938;30.642;2023-04-06T12:10:11;102207.69;;;8.69;56.97
48926;BME280;39838;59.938;30.642;2023-04-06T12:12:39;102210.78;;;8.59;55.93
48926;BME280;39838;59.938;30.642;2023-04-06T12:15:07;102211.56;;;8.56;56.86
48926;BME280;39838;59.938;30.642;2023-04-06T12:17:34;102215.03;;;8.57;57.01
48926;BME280;39838;59.938;30.642;2023-04-06T12:20:04;102212.44;;;8.57;56.00
48926;BME280;39838;59.938;30.642;2023-04-06T12:22:32;102203.78;;;8.56;56.51
48926;BME280;39838;59.938;30.642;2023-04-06T12:24:59;102200.63;;;8.65;55.88
48926;BME280;39838;59.938;30.642;2023-04-06T12:27:26;102203.47;;;8.72;55.09
48926;BME280;39838;59.938;30.642;2023-04-06T12:29:54;102199.50;;;8.82;55.56
48926;BME280;39838;59.938;30.642;2023-04-06T12:32:22;102191.31;;;8.95;55.20
48926;BME280;39838;59.938;30.642;2023-04-06T12:34:50;102192.78;;;9.14;54.34
48926;BME280;39838;59.938;30.642;2023-04-06T12:37:19;102188.34;;;9.37;55.05
48926;BME280;39838;59.938;30.642;2023-04-06T12:39:47;102194.34;;;9.63;54.82
48926;BME280;39838;59.938;30.642;2023-04-06T12:42:14;102191.41;;;9.81;54.06
48926;BME280;39838;59.938;30.642;2023-04-06T12:44:41;102194.38;;;9.93;53.20
48926;BME280;39838;59.938;30.642;2023-04-06T12:47:08;102187.28;;;9.88;52.06
48926;BME280;39838;59.938;30.642;2023-04-06T12:49:36;102184.44;;;9.78;51.66
48926;BME280;39838;59.938;30.642;2023-04-06T12:52:03;102182.38;;;9.68;51.23
48926;BME280;39838;59.938;30.642;2023-04-06T12:54:32;102176.97;;;9.61;51.18